Terminal Aerodrome Forecast
Issued by NWS Northern Indiana

Home | Current Version | Previous Version | Text Only | Print | Product List | Glossary On
Versions: 1 2 3 4 5 6 7 8 9 10 11 12 13 14 15
414
FTUS43 KIWX 201720
TAFFWA
TAF
KFWA 201720Z 2018/2118 18006KT P6SM SCT040 SCT250
     FM210300 17003KT P6SM BKN060
     FM210900 19003KT 6SM -SHRA VCTS BKN040CB
     FM211300 22007KT P6SM BKN040=

USA.gov is the U.S. government's official web portal to all federal, state and local government web resources and services.